Terminal Aerodrome Forecast
Issued by NWS

Home | Current Version | Previous Version | Text Only | Print | Product List | Glossary On
Versions: 1 2 3 4 5 6 7 8 9 10 11 12 13 14 15 16 17 18 19 20 21 22 23 24 25
000
FTUS45 KREV 180500
TAFTRK
TAF
KTRK 180522Z 1806/1906 20011G20KT P6SM FEW080 SCT140
     FM180800 20008G16KT P6SM FEW080 SCT140
     FM181700 22011G20KT P6SM SCT080 SCT140
     FM182000 24013G24KT 4SM FU HZ SCT020 SCT070 BKN100
     FM190100 23008G16KT 3SM FU SCT020 SCT070 BKN100
      AMD NOT SKED 1806/1812=

USA.gov is the U.S. government's official web portal to all federal, state and local government web resources and services.